createdAt,value
2019-05-29T00:00:16.204Z,3.60
2019-05-29T00:02:49.122Z,3.27
2019-05-29T00:05:22.007Z,3.35
2019-05-29T00:07:54.843Z,2.80
2019-05-29T00:10:27.804Z,3.20
2019-05-29T00:13:00.737Z,3.45
2019-05-29T00:15:33.672Z,3.40
2019-05-29T00:18:06.835Z,4.12
2019-05-29T00:20:39.746Z,3.55
2019-05-29T00:23:13.176Z,3.47
2019-05-29T00:25:46.053Z,2.90
2019-05-29T00:28:18.916Z,2.55
2019-05-29T00:30:51.774Z,2.00
2019-05-29T00:33:24.609Z,2.90
2019-05-29T00:35:57.526Z,2.17
2019-05-29T00:38:30.395Z,1.87
2019-05-29T00:41:03.272Z,2.10
2019-05-29T00:43:36.145Z,2.12
2019-05-29T00:46:09.319Z,2.20
2019-05-29T00:48:42.197Z,1.90
2019-05-29T00:51:15.158Z,1.85
2019-05-29T00:53:47.971Z,2.02
2019-05-29T00:56:20.789Z,1.90
2019-05-29T00:58:53.600Z,1.70
2019-05-29T01:01:26.421Z,1.80
2019-05-29T01:03:59.394Z,2.02
2019-05-29T01:06:32.140Z,2.10
2019-05-29T01:09:06.189Z,1.90
2019-05-29T01:11:39.006Z,1.85
2019-05-29T01:14:13.007Z,1.75
2019-05-29T01:16:46.024Z,1.70
2019-05-29T01:19:25.436Z,1.65
2019-05-29T01:21:58.744Z,2.10
2019-05-29T01:24:31.533Z,1.95
2019-05-29T01:27:04.509Z,1.80
2019-05-29T01:29:37.294Z,1.90
2019-05-29T01:32:10.164Z,1.85
2019-05-29T01:34:43.011Z,1.65
2019-05-29T01:37:16.130Z,1.98
2019-05-29T01:39:50.094Z,1.80
2019-05-29T01:42:24.350Z,1.80
2019-05-29T01:45:07.122Z,1.80
2019-05-29T01:47:31.688Z,2.00
2019-05-29T01:50:04.479Z,1.67
2019-05-29T01:52:37.376Z,1.82
2019-05-29T01:55:10.635Z,1.80
2019-05-29T01:57:43.490Z,2.00
2019-05-29T02:00:17.789Z,1.75
2019-05-29T02:02:51.375Z,1.82
2019-05-29T02:05:24.237Z,2.25
2019-05-29T02:07:57.123Z,2.10
2019-05-29T02:10:29.979Z,1.60
2019-05-29T02:13:02.780Z,1.57
2019-05-29T02:15:35.761Z,1.82
2019-05-29T02:18:08.631Z,1.90
2019-05-29T02:20:44.551Z,1.60
2019-05-29T02:23:17.783Z,1.62
2019-05-29T02:25:50.540Z,1.60
2019-05-29T02:28:24.580Z,2.10
2019-05-29T02:30:57.474Z,1.95
2019-05-29T02:33:30.220Z,2.17
2019-05-29T02:36:03.077Z,2.00
2019-05-29T02:38:35.850Z,1.90
2019-05-29T02:41:08.733Z,1.80
2019-05-29T02:43:41.519Z,2.67
2019-05-29T02:46:14.281Z,1.92
2019-05-29T02:48:47.127Z,1.87
2019-05-29T02:51:19.895Z,1.92
2019-05-29T02:53:52.708Z,1.87
2019-05-29T02:56:26.906Z,2.12
2019-05-29T02:58:59.974Z,1.90
2019-05-29T03:01:32.948Z,2.00
2019-05-29T03:04:05.745Z,2.35
2019-05-29T03:06:38.935Z,2.50
2019-05-29T03:09:11.690Z,1.95
2019-05-29T03:11:44.963Z,2.15
2019-05-29T03:14:17.804Z,2.20
2019-05-29T03:16:50.647Z,2.40
2019-05-29T03:19:23.891Z,2.30
2019-05-29T03:21:56.770Z,2.40
2019-05-29T03:24:30.836Z,2.08
2019-05-29T03:27:04.152Z,2.17
2019-05-29T03:29:38.491Z,2.10
2019-05-29T03:32:14.057Z,2.15
2019-05-29T03:34:47.610Z,2.10
2019-05-29T03:37:20.992Z,1.50
2019-05-29T03:39:54.053Z,2.15
2019-05-29T03:42:28.295Z,1.95
2019-05-29T03:45:01.379Z,1.85
2019-05-29T03:47:35.061Z,2.00
2019-05-29T03:50:08.443Z,1.70
2019-05-29T03:52:41.221Z,2.20
2019-05-29T03:55:13.996Z,2.58
2019-05-29T03:57:46.875Z,2.12
2019-05-29T04:00:19.840Z,1.80
2019-05-29T04:02:52.739Z,2.12
2019-05-29T04:05:26.845Z,1.67
2019-05-29T04:07:59.796Z,1.85
2019-05-29T04:10:35.520Z,2.05
2019-05-29T04:13:07.658Z,2.20
2019-05-29T04:15:42.147Z,2.02
2019-05-29T04:18:19.242Z,2.00
2019-05-29T04:20:50.674Z,2.12
2019-05-29T04:23:25.484Z,2.30
2019-05-29T04:25:59.455Z,2.02
2019-05-29T04:28:34.743Z,1.82
2019-05-29T04:31:08.059Z,2.30
2019-05-29T04:33:40.871Z,2.17
2019-05-29T04:36:13.705Z,2.08
2019-05-29T04:38:46.480Z,1.90
2019-05-29T04:41:19.265Z,2.98
2019-05-29T04:43:52.089Z,2.05
2019-05-29T04:46:24.896Z,1.85
2019-05-29T04:48:57.921Z,1.90
2019-05-29T04:51:31.232Z,2.12
2019-05-29T04:54:04.207Z,2.52
2019-05-29T04:56:37.063Z,1.80
2019-05-29T04:59:10.009Z,2.17
2019-05-29T05:01:42.812Z,1.82
2019-05-29T05:04:15.662Z,1.98
2019-05-29T05:06:48.514Z,2.58
2019-05-29T05:09:21.349Z,2.05
2019-05-29T05:11:54.918Z,1.77
2019-05-29T05:14:27.746Z,2.20
2019-05-29T05:17:00.636Z,2.22
2019-05-29T05:19:33.940Z,2.02
2019-05-29T05:22:08.417Z,1.98
2019-05-29T05:24:43.950Z,2.02
2019-05-29T05:27:15.829Z,1.57
2019-05-29T05:29:48.698Z,2.87
2019-05-29T05:32:21.524Z,2.10
2019-05-29T05:34:54.642Z,3.05
2019-05-29T05:37:27.411Z,1.95
2019-05-29T05:40:00.296Z,1.75
2019-05-29T05:42:33.061Z,2.20
2019-05-29T05:45:06.194Z,2.02
2019-05-29T05:47:50.435Z,2.60
2019-05-29T05:50:14.377Z,2.52
2019-05-29T05:52:47.151Z,2.50
2019-05-29T05:55:20.182Z,2.10
2019-05-29T05:57:53.031Z,2.20
2019-05-29T06:00:35.837Z,2.58
2019-05-29T06:03:09.342Z,2.40
2019-05-29T06:05:42.349Z,2.35
2019-05-29T06:08:15.293Z,2.60
2019-05-29T06:10:51.106Z,2.02
2019-05-29T06:13:23.690Z,1.70
2019-05-29T06:15:56.704Z,1.82
2019-05-29T06:18:29.528Z,2.10
2019-05-29T06:21:02.722Z,1.90
2019-05-29T06:23:36.897Z,2.37
2019-05-29T06:26:09.978Z,1.90
2019-05-29T06:28:43.479Z,2.08
2019-05-29T06:31:16.493Z,1.75
2019-05-29T06:33:49.250Z,2.00
2019-05-29T06:36:22.194Z,1.98
2019-05-29T06:38:55.134Z,2.30
2019-05-29T06:41:28.279Z,2.17
2019-05-29T06:44:01.217Z,1.87
2019-05-29T06:46:34.398Z,1.65
2019-05-29T06:49:07.190Z,1.50
2019-05-29T06:51:41.253Z,1.62
2019-05-29T06:54:14.304Z,1.77
2019-05-29T06:56:48.013Z,1.80
2019-05-29T06:59:20.913Z,1.40
2019-05-29T07:01:53.770Z,1.98
2019-05-29T07:04:26.722Z,1.70
2019-05-29T07:06:59.607Z,1.30
2019-05-29T07:09:32.418Z,1.42
2019-05-29T07:12:05.287Z,1.70
2019-05-29T07:14:38.210Z,1.12
2019-05-29T07:17:11.064Z,1.20
2019-05-29T07:19:57.466Z,1.47
2019-05-29T07:22:18.569Z,1.40
2019-05-29T07:24:51.334Z,1.30
2019-05-29T07:27:24.157Z,1.57
2019-05-29T07:29:57.054Z,1.62
2019-05-29T07:32:29.954Z,1.42
2019-05-29T07:35:04.101Z,1.60
2019-05-29T07:37:39.542Z,1.45
2019-05-29T07:40:14.138Z,1.90
2019-05-29T07:42:55.076Z,1.42
2019-05-29T07:45:23.152Z,1.70
2019-05-29T07:47:56.477Z,1.65
2019-05-29T07:50:29.351Z,1.70
2019-05-29T07:53:02.247Z,1.40
2019-05-29T07:55:35.063Z,1.67
2019-05-29T07:58:07.964Z,1.60
2019-05-29T08:01:03.765Z,2.05
2019-05-29T08:03:15.504Z,1.60
2019-05-29T08:05:51.536Z,1.67
2019-05-29T08:08:22.829Z,1.60
2019-05-29T08:10:56.788Z,1.50
2019-05-29T08:13:29.597Z,1.40
2019-05-29T08:16:03.418Z,1.50
2019-05-29T08:18:36.583Z,1.30
2019-05-29T08:21:09.460Z,1.55
2019-05-29T08:23:42.351Z,1.85
2019-05-29T08:26:15.100Z,1.60
2019-05-29T08:28:48.947Z,1.70
2019-05-29T08:31:21.835Z,1.65
2019-05-29T08:33:54.598Z,1.90
2019-05-29T08:36:27.474Z,1.60
2019-05-29T08:39:00.247Z,1.65
2019-05-29T08:41:33.202Z,1.65
2019-05-29T08:44:06.060Z,2.40
2019-05-29T08:46:38.958Z,1.52
2019-05-29T08:49:11.837Z,1.27
2019-05-29T08:51:46.023Z,1.32
2019-05-29T08:54:23.809Z,1.52
2019-05-29T08:56:53.355Z,1.65
2019-05-29T08:59:26.099Z,1.72
2019-05-29T09:01:58.891Z,1.70
2019-05-29T09:04:32.064Z,1.70
2019-05-29T09:07:04.983Z,1.65
2019-05-29T09:09:37.848Z,1.40
2019-05-29T09:12:11.393Z,1.67
2019-05-29T09:14:44.174Z,1.32
2019-05-29T09:17:18.400Z,1.30
2019-05-29T09:19:51.345Z,1.45
2019-05-29T09:22:25.269Z,1.12
2019-05-29T09:24:58.073Z,1.32
2019-05-29T09:27:30.881Z,1.30
2019-05-29T09:30:06.220Z,1.30
2019-05-29T09:32:50.414Z,1.02
2019-05-29T09:35:16.072Z,1.55
2019-05-29T09:37:49.111Z,1.20
2019-05-29T09:40:23.073Z,1.10
2019-05-29T09:42:56.217Z,1.30
2019-05-29T09:45:33.392Z,1.25
2019-05-29T09:48:06.537Z,1.20
2019-05-29T09:50:50.024Z,1.40
2019-05-29T09:53:15.680Z,1.30
2019-05-29T09:55:48.669Z,1.25
2019-05-29T09:58:21.432Z,1.25
2019-05-29T10:01:16.200Z,1.82
2019-05-29T10:03:28.890Z,1.50
2019-05-29T10:06:01.661Z,1.20
2019-05-29T10:08:34.449Z,1.50
2019-05-29T10:11:15.569Z,1.60
2019-05-29T10:13:48.335Z,2.10
2019-05-29T10:16:21.217Z,1.00
2019-05-29T10:18:54.259Z,2.40
2019-05-29T10:21:39.191Z,1.70
2019-05-29T10:24:04.157Z,1.40
2019-05-29T10:26:37.399Z,1.50
2019-05-29T10:29:10.388Z,1.45
2019-05-29T10:31:46.828Z,1.98
2019-05-29T10:34:17.985Z,1.30
2019-05-29T10:36:53.570Z,1.20
2019-05-29T10:39:25.421Z,1.57
2019-05-29T10:41:58.268Z,2.00
2019-05-29T10:44:31.083Z,1.77
2019-05-29T10:47:03.914Z,1.40
2019-05-29T10:49:36.792Z,1.70
2019-05-29T10:52:16.162Z,1.30
2019-05-29T10:54:44.147Z,1.30
2019-05-29T10:57:17.165Z,1.30
2019-05-29T10:59:50.853Z,1.35
2019-05-29T11:02:23.752Z,1.35
2019-05-29T11:04:59.338Z,1.12
2019-05-29T11:07:31.654Z,1.50
2019-05-29T11:10:04.701Z,1.45
2019-05-29T11:12:39.504Z,1.47
2019-05-29T11:15:21.485Z,1.60
2019-05-29T11:17:47.147Z,1.40
2019-05-29T11:20:21.973Z,1.40
2019-05-29T11:22:55.670Z,1.65
2019-05-29T11:25:28.922Z,1.70
2019-05-29T11:28:01.730Z,2.10
2019-05-29T11:30:34.667Z,1.35
2019-05-29T11:33:07.496Z,1.10
2019-05-29T11:35:57.240Z,1.27
2019-05-29T11:38:15.085Z,1.30
2019-05-29T11:40:48.229Z,1.07
2019-05-29T11:43:21.492Z,1.50
2019-05-29T11:45:55.189Z,1.40
2019-05-29T11:48:28.177Z,1.22
2019-05-29T11:51:01.030Z,1.47
2019-05-29T11:53:33.826Z,1.40
2019-05-29T11:56:07.062Z,1.17
2019-05-29T11:58:39.965Z,1.40
2019-05-29T12:01:13.187Z,1.30
2019-05-29T12:04:09.015Z,1.50
2019-05-29T12:06:20.530Z,1.17
2019-05-29T12:08:53.686Z,1.72
2019-05-29T12:11:26.730Z,1.00
2019-05-29T12:14:00.489Z,1.30
2019-05-29T12:16:33.910Z,1.20
2019-05-29T12:19:07.825Z,2.22
2019-05-29T12:21:42.788Z,2.80
2019-05-29T12:24:15.272Z,1.92
2019-05-29T12:26:48.144Z,2.20
2019-05-29T12:29:20.953Z,2.52
2019-05-29T12:31:54.907Z,2.55
2019-05-29T12:34:27.903Z,2.00
2019-05-29T12:37:01.897Z,1.80
2019-05-29T12:39:34.953Z,1.37
2019-05-29T12:42:08.055Z,2.25
2019-05-29T12:44:40.868Z,1.52
2019-05-29T12:47:13.968Z,1.30
2019-05-29T12:49:46.842Z,1.10
2019-05-29T12:52:19.825Z,1.40
2019-05-29T12:54:53.950Z,1.60
2019-05-29T12:57:26.790Z,1.82
2019-05-29T13:00:00.317Z,1.10
2019-05-29T13:02:33.204Z,1.30
2019-05-29T13:05:16.049Z,1.30
2019-05-29T13:07:44.446Z,1.15
2019-05-29T13:10:30.241Z,1.12
2019-05-29T13:13:02.406Z,1.10
2019-05-29T13:15:29.447Z,1.67
2019-05-29T13:18:06.247Z,1.10
2019-05-29T13:20:36.880Z,1.30
2019-05-29T13:23:10.933Z,1.40
2019-05-29T13:25:43.870Z,1.82
2019-05-29T13:28:16.819Z,2.25
2019-05-29T13:30:49.600Z,1.70
2019-05-29T13:33:22.688Z,2.62
2019-05-29T13:35:56.246Z,2.00
2019-05-29T13:38:29.336Z,1.50
2019-05-29T13:41:04.620Z,2.02
2019-05-29T13:43:37.538Z,2.47
2019-05-29T13:46:10.450Z,3.15
2019-05-29T13:48:43.605Z,2.50
2019-05-29T13:51:16.504Z,2.02
2019-05-29T13:54:02.681Z,1.00
2019-05-29T13:56:24.440Z,3.67
2019-05-29T13:58:57.841Z,2.08
2019-05-29T14:01:31.018Z,1.40
2019-05-29T14:04:05.179Z,1.77
2019-05-29T14:06:38.567Z,1.87
2019-05-29T14:09:11.575Z,1.85
2019-05-29T14:11:44.557Z,1.07
2019-05-29T14:14:18.070Z,1.00
2019-05-29T14:16:51.130Z,1.00
2019-05-29T14:19:23.956Z,1.00
2019-05-29T14:21:57.119Z,1.10
2019-05-29T14:24:30.557Z,1.40
2019-05-29T14:27:03.652Z,1.10
2019-05-29T14:29:36.441Z,1.20
2019-05-29T14:32:09.412Z,1.25
2019-05-29T14:34:42.265Z,1.10
2019-05-29T14:37:15.117Z,1.20
2019-05-29T14:39:47.975Z,1.17
2019-05-29T14:42:20.777Z,1.50
2019-05-29T14:44:53.530Z,1.20
2019-05-29T14:47:26.499Z,1.15
2019-05-29T14:49:59.373Z,0.90
2019-05-29T14:52:32.306Z,1.22
2019-05-29T14:55:06.770Z,1.10
2019-05-29T14:57:39.649Z,1.60
2019-05-29T15:00:22.836Z,0.98
2019-05-29T15:02:48.933Z,1.10
2019-05-29T15:05:22.057Z,1.20
2019-05-29T15:07:54.917Z,1.10
2019-05-29T15:10:27.976Z,0.98
2019-05-29T15:13:00.876Z,1.15
2019-05-29T15:15:34.163Z,1.27
2019-05-29T15:18:07.128Z,1.30
2019-05-29T15:20:40.044Z,1.25
2019-05-29T15:23:13.528Z,1.75
2019-05-29T15:25:46.392Z,1.20
2019-05-29T15:28:19.294Z,1.00
2019-05-29T15:30:52.134Z,1.12
2019-05-29T15:33:25.324Z,1.40
2019-05-29T15:35:58.227Z,1.70
2019-05-29T15:38:31.060Z,1.50
2019-05-29T15:41:03.833Z,1.27
2019-05-29T15:43:36.887Z,1.15
2019-05-29T15:46:10.491Z,1.45
2019-05-29T15:48:44.280Z,0.98
2019-05-29T15:51:21.732Z,1.02
2019-05-29T15:53:53.529Z,1.40
2019-05-29T15:56:28.160Z,1.62
2019-05-29T15:59:01.435Z,1.15
2019-05-29T16:01:34.277Z,1.30
2019-05-29T16:04:09.510Z,1.10
2019-05-29T16:06:42.714Z,1.50
2019-05-29T16:09:16.339Z,1.60
2019-05-29T16:11:49.572Z,1.00
2019-05-29T16:14:25.364Z,1.00
2019-05-29T16:16:59.715Z,1.05
2019-05-29T16:19:32.807Z,1.10
2019-05-29T16:22:05.847Z,1.35
2019-05-29T16:24:39.390Z,1.10
2019-05-29T16:27:12.276Z,1.40
2019-05-29T16:29:45.157Z,1.50
2019-05-29T16:32:18.041Z,1.20
2019-05-29T16:34:50.891Z,1.00
2019-05-29T16:37:23.704Z,1.15
2019-05-29T16:39:56.745Z,1.20
2019-05-29T16:42:29.693Z,1.10
2019-05-29T16:45:04.142Z,1.10
2019-05-29T16:47:37.108Z,0.93
2019-05-29T16:50:14.984Z,1.10
2019-05-29T16:53:42.729Z,1.30
2019-05-29T16:56:26.058Z,1.00
2019-05-29T16:58:59.053Z,1.10
2019-05-29T17:01:37.880Z,1.10
2019-05-29T17:04:11.140Z,1.30
2019-05-29T17:06:44.159Z,1.30
2019-05-29T17:09:24.431Z,1.17
2019-05-29T17:11:58.035Z,1.65
2019-05-29T17:14:32.081Z,0.93
2019-05-29T17:17:05.057Z,1.80
2019-05-29T17:19:41.688Z,1.60
2019-05-29T17:22:14.899Z,1.42
2019-05-29T17:24:54.001Z,1.40
2019-05-29T17:27:27.411Z,1.05
2019-05-29T17:30:07.077Z,0.93
2019-05-29T17:32:48.457Z,1.12
2019-05-29T17:35:26.198Z,1.15
2019-05-29T17:38:12.650Z,1.45
2019-05-29T17:40:53.627Z,1.15
2019-05-29T17:43:45.246Z,1.20
2019-05-29T17:46:22.026Z,1.50
2019-05-29T17:49:30.343Z,1.65
2019-05-29T17:52:04.593Z,1.60
2019-05-29T17:55:36.727Z,1.42
2019-05-29T17:59:00.397Z,1.80
2019-05-29T18:01:20.216Z,1.90
2019-05-29T18:04:12.078Z,1.95
2019-05-29T18:06:48.659Z,1.57
2019-05-29T18:09:39.963Z,1.98
2019-05-29T18:12:17.120Z,1.52
2019-05-29T18:14:52.422Z,1.92
2019-05-29T18:17:58.437Z,1.70
2019-05-29T18:21:38.597Z,2.30
2019-05-29T18:24:24.201Z,2.00
2019-05-29T18:27:00.200Z,1.65
2019-05-29T18:29:42.024Z,1.67
2019-05-29T18:32:47.539Z,1.60
2019-05-29T18:35:45.036Z,1.37
2019-05-29T18:38:38.284Z,1.27
2019-05-29T18:41:24.406Z,2.15
2019-05-29T18:44:04.295Z,3.37
2019-05-29T18:50:15.764Z,4.97
2019-05-29T18:53:09.655Z,5.42
2019-05-29T18:55:37.936Z,7.25
2019-05-29T18:58:41.322Z,6.37
2019-05-29T19:01:31.734Z,6.08
2019-05-29T19:04:06.608Z,2.33
2019-05-29T19:07:04.122Z,2.35
2019-05-29T19:10:06.215Z,2.20
2019-05-29T19:13:01.682Z,2.00
2019-05-29T19:25:33.062Z,2.67
2019-05-29T19:28:06.552Z,2.62
2019-05-29T19:30:40.147Z,3.12
2019-05-29T19:33:13.435Z,2.90
2019-05-29T19:35:46.847Z,2.02
2019-05-29T19:38:19.898Z,2.55
2019-05-29T19:40:53.080Z,2.40
2019-05-29T19:43:26.440Z,3.62
2019-05-29T19:45:59.676Z,3.30
2019-05-29T19:48:33.458Z,3.45
2019-05-29T19:51:07.148Z,3.98
2019-05-29T19:53:40.523Z,5.10
2019-05-29T19:56:13.732Z,6.28
2019-05-29T19:58:47.177Z,4.80
2019-05-29T20:01:30.790Z,4.90
2019-05-29T20:03:56.030Z,4.30
2019-05-29T20:06:30.997Z,3.40
2019-05-29T20:09:07.266Z,3.20
2019-05-29T20:11:40.433Z,3.58
2019-05-29T20:14:13.576Z,3.02
2019-05-29T20:16:46.611Z,3.87
2019-05-29T20:19:19.749Z,3.50
2019-05-29T20:21:52.821Z,3.45
2019-05-29T20:24:26.768Z,3.62
2019-05-29T20:26:59.834Z,2.83
2019-05-29T20:29:38.560Z,2.20
2019-05-29T20:32:11.833Z,2.80
2019-05-29T20:34:44.806Z,2.12
2019-05-29T20:37:17.899Z,2.60
2019-05-29T20:39:50.955Z,2.33
2019-05-29T20:42:24.115Z,2.08
2019-05-29T20:44:57.016Z,2.30
2019-05-29T20:47:30.068Z,2.00
2019-05-29T20:50:03.693Z,2.47
2019-05-29T20:52:37.407Z,2.27
2019-05-29T20:55:10.734Z,2.00
2019-05-29T20:57:43.772Z,2.10
2019-05-29T21:00:18.844Z,2.80
2019-05-29T21:02:52.563Z,2.65
2019-05-29T21:05:25.500Z,1.70
2019-05-29T21:07:58.464Z,1.55
2019-05-29T21:10:32.995Z,2.00
2019-05-29T21:13:06.290Z,1.70
2019-05-29T21:15:39.786Z,1.85
2019-05-29T21:18:13.335Z,2.37
2019-05-29T21:20:46.435Z,1.90
2019-05-29T21:23:19.569Z,1.87
2019-05-29T21:25:58.252Z,2.33
2019-05-29T21:28:40.755Z,2.50
2019-05-29T21:31:06.914Z,2.00
2019-05-29T21:33:43.906Z,1.92
2019-05-29T21:36:14.560Z,2.10
2019-05-29T21:38:47.456Z,2.25
2019-05-29T21:41:20.331Z,1.72
2019-05-29T21:43:54.342Z,2.00
2019-05-29T21:46:27.461Z,1.90
2019-05-29T21:49:00.402Z,1.62
2019-05-29T21:51:33.415Z,1.72
2019-05-29T21:54:06.578Z,1.90
2019-05-29T21:56:39.523Z,1.72
2019-05-29T21:59:12.643Z,1.80
2019-05-29T22:01:46.295Z,1.90
2019-05-29T22:04:19.337Z,2.22
2019-05-29T22:06:52.437Z,2.70
2019-05-29T22:09:25.456Z,2.92
2019-05-29T22:11:58.600Z,2.95
2019-05-29T22:14:31.980Z,3.30
2019-05-29T22:17:06.051Z,2.70
2019-05-29T22:19:39.046Z,5.58
2019-05-29T22:22:12.081Z,7.53
2019-05-29T22:24:45.149Z,5.45
2019-05-29T22:27:18.017Z,3.80
2019-05-29T22:29:51.968Z,4.10
2019-05-29T22:32:25.499Z,2.90
2019-05-29T22:34:59.503Z,3.17
2019-05-29T22:37:32.881Z,2.92
2019-05-29T22:40:06.103Z,1.75
2019-05-29T22:42:38.985Z,2.00
2019-05-29T22:45:12.142Z,2.52
2019-05-29T22:47:45.340Z,2.20
2019-05-29T22:50:18.468Z,2.20
2019-05-29T22:52:51.752Z,2.50
2019-05-29T22:55:24.871Z,3.02
2019-05-29T22:57:58.018Z,3.42
2019-05-29T23:00:34.259Z,3.30
2019-05-29T23:03:07.284Z,3.47
2019-05-29T23:05:40.558Z,4.20
2019-05-29T23:08:13.647Z,4.70
2019-05-29T23:10:46.614Z,3.75
2019-05-29T23:13:19.756Z,3.65
2019-05-29T23:15:54.471Z,3.80
2019-05-29T23:18:27.655Z,3.80
2019-05-29T23:21:00.651Z,4.72
2019-05-29T23:23:34.061Z,4.50
2019-05-29T23:26:07.129Z,4.40
2019-05-29T23:28:40.154Z,4.20
2019-05-29T23:31:13.139Z,5.22
2019-05-29T23:33:46.216Z,4.35
2019-05-29T23:36:19.086Z,4.55
2019-05-29T23:38:53.124Z,4.37
2019-05-29T23:41:26.318Z,4.72
2019-05-29T23:43:59.532Z,4.35
2019-05-29T23:46:32.525Z,5.33
2019-05-29T23:49:05.417Z,5.60
2019-05-29T23:51:38.287Z,8.55
2019-05-29T23:54:12.134Z,8.80
2019-05-29T23:56:44.905Z,7.70
2019-05-29T23:59:17.816Z,9.15
